createdAt,value
2018-12-31T00:05:25.229Z,70.15
2018-12-31T00:08:14.064Z,70.25
2018-12-31T00:11:02.972Z,70.33
2018-12-31T00:13:51.886Z,70.32
2018-12-31T00:16:33.588Z,70.35
2018-12-31T00:19:22.443Z,70.32
2018-12-31T00:22:11.282Z,70.37
2018-12-31T00:25:00.230Z,70.30
2018-12-31T00:27:49.137Z,70.39
2018-12-31T00:30:37.994Z,70.45
2018-12-31T00:33:26.867Z,70.56
2018-12-31T00:36:15.704Z,70.56
2018-12-31T00:39:25.446Z,70.52
2018-12-31T00:42:14.291Z,70.52
2018-12-31T00:45:03.178Z,70.49
2018-12-31T00:47:52.042Z,70.47
2018-12-31T00:50:40.899Z,70.57
2018-12-31T00:53:29.750Z,70.51
2018-12-31T00:56:18.596Z,70.58
2018-12-31T00:59:00.390Z,70.60
2018-12-31T01:01:49.216Z,70.57
2018-12-31T01:04:38.050Z,70.64
2018-12-31T01:07:26.898Z,70.57
2018-12-31T01:10:15.752Z,70.50
2018-12-31T01:13:04.560Z,70.54
2018-12-31T01:15:53.766Z,70.46
2018-12-31T01:18:42.598Z,70.51
2018-12-31T01:21:31.438Z,70.56
2018-12-31T01:24:20.335Z,70.67
2018-12-31T01:27:09.190Z,70.62
2018-12-31T01:29:58.040Z,70.76
2018-12-31T01:32:46.875Z,70.76
2018-12-31T01:35:35.727Z,70.82
2018-12-31T01:38:24.519Z,70.82
2018-12-31T01:41:13.368Z,70.81
2018-12-31T01:44:02.179Z,70.79
2018-12-31T01:46:51.018Z,70.87
2018-12-31T01:49:39.874Z,70.76
2018-12-31T01:52:28.698Z,70.84
2018-12-31T01:55:17.529Z,70.87
2018-12-31T01:58:06.371Z,70.92
2018-12-31T02:00:55.196Z,70.93
2018-12-31T02:03:44.042Z,70.86
2018-12-31T02:06:32.851Z,70.78
2018-12-31T02:09:21.783Z,70.80
2018-12-31T02:12:03.242Z,70.75
2018-12-31T02:14:52.062Z,70.73
2018-12-31T02:17:40.918Z,70.73
2018-12-31T02:20:29.754Z,70.69
2018-12-31T02:23:18.588Z,70.69
2018-12-31T02:26:07.512Z,70.65
2018-12-31T02:28:56.336Z,70.68
2018-12-31T02:31:45.172Z,70.74
2018-12-31T02:34:34.018Z,70.76
2018-12-31T02:37:22.825Z,70.80
2018-12-31T02:40:11.685Z,70.77
2018-12-31T02:43:00.538Z,70.76
2018-12-31T02:45:42.633Z,70.65
2018-12-31T02:48:31.490Z,70.79
2018-12-31T02:51:20.338Z,70.83
2018-12-31T02:54:09.168Z,70.82
2018-12-31T02:56:57.997Z,70.76
2018-12-31T02:59:46.845Z,70.75
2018-12-31T03:02:35.688Z,70.81
2018-12-31T03:05:24.500Z,70.77
2018-12-31T03:08:06.084Z,70.82
2018-12-31T03:10:54.918Z,70.81
2018-12-31T03:13:43.740Z,70.87
2018-12-31T03:16:32.585Z,70.83
2018-12-31T03:19:21.451Z,70.78
2018-12-31T03:22:10.247Z,70.74
2018-12-31T03:24:59.100Z,70.77
2018-12-31T03:27:47.949Z,70.76
2018-12-31T03:30:36.758Z,70.76
2018-12-31T03:33:25.615Z,70.67
2018-12-31T03:36:14.444Z,70.69
2018-12-31T03:38:55.887Z,70.65
2018-12-31T03:41:44.794Z,70.68
2018-12-31T03:44:33.601Z,70.62
2018-12-31T03:47:22.533Z,70.60
2018-12-31T03:50:11.347Z,70.69
2018-12-31T03:53:00.179Z,70.63
2018-12-31T03:55:49.025Z,70.64
2018-12-31T03:58:37.858Z,70.67
2018-12-31T04:01:26.660Z,70.74
2018-12-31T04:04:15.511Z,70.65
2018-12-31T04:06:44.977Z,70.67
2018-12-31T04:09:35.037Z,70.73
2018-12-31T04:12:24.482Z,70.64
2018-12-31T04:15:13.315Z,70.69
2018-12-31T04:17:53.135Z,70.80
2018-12-31T04:20:41.975Z,70.77
2018-12-31T04:23:30.803Z,70.72
2018-12-31T04:26:19.641Z,70.76
2018-12-31T04:29:08.456Z,70.80
2018-12-31T04:31:57.321Z,70.81
2018-12-31T04:34:46.115Z,70.82
2018-12-31T04:37:34.966Z,70.80
2018-12-31T04:40:23.804Z,70.83
2018-12-31T04:43:12.606Z,70.94
2018-12-31T04:46:01.456Z,70.96
2018-12-31T04:48:43.259Z,70.93
2018-12-31T04:51:32.104Z,70.96
2018-12-31T04:54:20.967Z,70.92
2018-12-31T04:57:09.781Z,70.94
2018-12-31T04:59:58.627Z,70.92
2018-12-31T05:02:47.544Z,70.94
2018-12-31T05:05:36.354Z,71.07
2018-12-31T05:08:25.201Z,70.99
2018-12-31T05:11:14.046Z,70.99
2018-12-31T05:14:02.892Z,71.03
2018-12-31T05:16:51.781Z,71.01
2018-12-31T05:19:40.602Z,71.05
2018-12-31T05:22:29.465Z,71.03
2018-12-31T05:25:18.277Z,70.97
2018-12-31T05:28:07.100Z,71.01
2018-12-31T05:30:48.825Z,70.94
2018-12-31T05:33:37.625Z,70.92
2018-12-31T05:36:26.536Z,71.03
2018-12-31T05:39:15.376Z,71.02
2018-12-31T05:42:04.224Z,71.06
2018-12-31T05:44:53.044Z,71.09
2018-12-31T05:47:41.879Z,71.12
2018-12-31T05:50:30.718Z,71.22
2018-12-31T05:53:19.551Z,71.30
2018-12-31T05:56:08.405Z,71.26
2018-12-31T05:58:57.244Z,71.37
2018-12-31T06:01:46.054Z,71.31
2018-12-31T06:04:34.905Z,71.33
2018-12-31T06:07:23.720Z,71.33
2018-12-31T06:10:12.577Z,71.38
2018-12-31T06:13:01.419Z,71.30
2018-12-31T06:15:50.226Z,71.33
2018-12-31T06:18:39.072Z,71.35
2018-12-31T06:21:18.858Z,71.33
2018-12-31T06:24:07.684Z,71.25
2018-12-31T06:26:56.509Z,71.29
2018-12-31T06:29:45.354Z,71.33
2018-12-31T06:32:34.186Z,71.30
2018-12-31T06:35:23.043Z,71.18
2018-12-31T06:38:11.899Z,71.28
2018-12-31T06:41:00.710Z,71.28
2018-12-31T06:43:49.561Z,71.26
2018-12-31T06:46:38.395Z,71.26
2018-12-31T06:49:27.245Z,71.17
2018-12-31T06:52:16.091Z,71.22
2018-12-31T06:55:05.436Z,71.20
2018-12-31T06:57:54.274Z,71.21
2018-12-31T07:00:43.112Z,71.14
2018-12-31T07:03:44.038Z,71.21
2018-12-31T07:06:22.566Z,71.11
2018-12-31T07:09:11.417Z,71.11
2018-12-31T07:11:53.484Z,71.06
2018-12-31T07:14:42.331Z,71.14
2018-12-31T07:17:31.172Z,71.07
2018-12-31T07:20:20.019Z,71.12
2018-12-31T07:23:08.872Z,71.06
2018-12-31T07:25:57.812Z,71.03
2018-12-31T07:28:46.633Z,71.11
2018-12-31T07:31:35.445Z,71.07
2018-12-31T07:34:24.287Z,71.04
2018-12-31T07:37:13.119Z,71.07
2018-12-31T07:40:01.977Z,71.00
2018-12-31T07:42:50.820Z,71.04
2018-12-31T07:45:39.672Z,70.98
2018-12-31T07:48:28.482Z,71.02
2018-12-31T07:51:10.586Z,71.02
2018-12-31T07:53:59.468Z,70.97
2018-12-31T07:56:48.337Z,71.02
2018-12-31T07:59:37.240Z,71.02
2018-12-31T08:02:26.107Z,71.10
2018-12-31T08:05:14.906Z,71.25
2018-12-31T08:08:03.773Z,71.26
2018-12-31T08:10:52.578Z,71.27
2018-12-31T08:13:41.428Z,71.26
2018-12-31T08:16:30.278Z,71.31
2018-12-31T08:19:19.096Z,71.27
2018-12-31T08:22:07.951Z,71.21
2018-12-31T08:24:56.754Z,71.15
2018-12-31T08:27:45.611Z,71.13
2018-12-31T08:30:34.471Z,71.07
2018-12-31T08:33:23.293Z,71.08
2018-12-31T08:36:12.141Z,70.99
2018-12-31T08:39:00.988Z,70.85
2018-12-31T08:41:40.855Z,70.79
2018-12-31T08:44:29.714Z,70.73
2018-12-31T08:47:18.530Z,70.43
2018-12-31T08:50:02.826Z,70.57
2018-12-31T08:52:50.854Z,70.51
2018-12-31T08:55:39.725Z,70.54
2018-12-31T08:58:28.576Z,70.49
2018-12-31T09:01:17.405Z,70.45
2018-12-31T09:04:06.254Z,70.61
2018-12-31T09:06:55.092Z,70.50
2018-12-31T09:09:43.914Z,70.50
2018-12-31T09:12:32.763Z,70.52
2018-12-31T09:15:21.689Z,70.49
2018-12-31T09:18:10.504Z,70.45
2018-12-31T09:20:59.351Z,70.50
2018-12-31T09:23:48.246Z,70.37
2018-12-31T09:26:37.099Z,70.23
2018-12-31T09:29:25.966Z,70.16
2018-12-31T09:31:55.454Z,70.13
2018-12-31T09:34:44.306Z,70.09
2018-12-31T09:37:33.154Z,70.20
2018-12-31T09:40:14.971Z,70.06
2018-12-31T09:42:44.483Z,70.09
2018-12-31T09:45:33.332Z,70.08
2018-12-31T09:48:22.157Z,70.04
2018-12-31T09:51:11.013Z,70.14
2018-12-31T09:53:59.816Z,70.12
2018-12-31T09:56:29.331Z,70.42
2018-12-31T09:59:18.147Z,70.36
2018-12-31T10:02:06.985Z,70.32
2018-12-31T10:04:55.806Z,70.30
2018-12-31T10:07:25.338Z,70.28
2018-12-31T10:10:14.152Z,70.09
2018-12-31T10:13:03.010Z,70.06
2018-12-31T10:15:51.829Z,70.01
2018-12-31T10:18:40.685Z,69.85
2018-12-31T10:21:29.513Z,69.94
2018-12-31T10:24:18.377Z,69.99
2018-12-31T10:27:07.192Z,69.96
2018-12-31T10:29:56.050Z,69.90
2018-12-31T10:32:44.894Z,69.90
2018-12-31T10:35:26.520Z,69.96
2018-12-31T10:37:55.981Z,69.90
2018-12-31T10:40:44.827Z,70.04
2018-12-31T10:43:33.663Z,69.99
2018-12-31T10:46:22.517Z,69.89
2018-12-31T10:49:11.387Z,69.92
2018-12-31T10:52:00.245Z,69.86
2018-12-31T10:54:49.059Z,70.02
2018-12-31T10:57:37.949Z,70.19
2018-12-31T11:00:26.840Z,70.15
2018-12-31T11:03:08.932Z,70.15
2018-12-31T11:05:57.761Z,70.23
2018-12-31T11:08:46.702Z,70.27
2018-12-31T11:11:35.574Z,70.19
2018-12-31T11:14:24.440Z,70.19
2018-12-31T11:17:13.314Z,70.14
2018-12-31T11:20:09.618Z,69.99
2018-12-31T11:22:58.443Z,69.84
2018-12-31T11:25:47.288Z,69.93
2018-12-31T11:28:36.125Z,69.91
2018-12-31T11:31:30.247Z,69.93
2018-12-31T11:34:15.558Z,69.90
2018-12-31T11:37:04.481Z,69.82
2018-12-31T11:39:53.284Z,69.93
2018-12-31T11:42:42.145Z,69.97
2018-12-31T11:45:30.966Z,69.92
2018-12-31T11:48:19.847Z,70.02
2018-12-31T11:51:08.643Z,70.07
2018-12-31T11:53:38.145Z,70.02
2018-12-31T11:56:27.004Z,69.86
2018-12-31T11:59:15.923Z,69.83
2018-12-31T12:02:04.888Z,69.83
2018-12-31T12:04:53.816Z,69.90
2018-12-31T12:07:42.646Z,69.87
2018-12-31T12:10:31.566Z,69.78
2018-12-31T12:13:20.443Z,69.87
2018-12-31T12:16:09.324Z,70.07
2018-12-31T12:18:58.153Z,70.13
2018-12-31T12:21:47.016Z,69.80
2018-12-31T12:24:35.862Z,69.79
2018-12-31T12:27:25.068Z,69.82
2018-12-31T12:30:13.933Z,69.80
2018-12-31T12:33:02.942Z,69.78
2018-12-31T12:35:51.781Z,69.81
2018-12-31T12:38:33.495Z,69.42
2018-12-31T12:41:22.400Z,69.58
2018-12-31T12:44:11.222Z,69.63
2018-12-31T12:47:00.087Z,69.67
2018-12-31T12:49:49.005Z,69.58
2018-12-31T12:52:37.939Z,69.68
2018-12-31T12:55:26.759Z,69.53
2018-12-31T12:58:15.616Z,69.59
2018-12-31T13:01:04.575Z,69.52
2018-12-31T13:03:44.453Z,69.46
2018-12-31T13:06:33.449Z,69.53
2018-12-31T13:09:22.310Z,69.56
2018-12-31T13:12:11.147Z,69.56
2018-12-31T13:15:00.012Z,69.14
2018-12-31T13:17:48.905Z,69.37
2018-12-31T13:20:37.751Z,69.41
2018-12-31T13:23:26.690Z,69.19
2018-12-31T13:25:56.186Z,69.45
2018-12-31T13:28:45.015Z,69.32
2018-12-31T13:31:33.861Z,69.17
2018-12-31T13:34:22.738Z,69.06
2018-12-31T13:37:11.607Z,69.09
2018-12-31T13:40:00.508Z,69.11
2018-12-31T13:42:49.289Z,69.21
2018-12-31T13:45:38.214Z,69.22
2018-12-31T13:48:27.045Z,69.00
2018-12-31T13:51:08.961Z,69.05
2018-12-31T13:53:57.856Z,69.07
2018-12-31T13:56:46.707Z,68.92
2018-12-31T13:59:35.548Z,68.91
2018-12-31T14:02:24.405Z,68.90
2018-12-31T14:05:13.248Z,68.77
2018-12-31T14:08:02.158Z,68.85
2018-12-31T14:10:50.962Z,68.79
2018-12-31T14:13:39.916Z,68.71
2018-12-31T14:16:28.844Z,68.71
2018-12-31T14:19:17.689Z,68.46
2018-12-31T14:22:06.609Z,68.51
2018-12-31T14:24:36.107Z,68.52
2018-12-31T14:27:24.968Z,68.78
2018-12-31T14:30:13.938Z,68.76
2018-12-31T14:33:02.787Z,68.76
2018-12-31T14:35:51.742Z,68.70
2018-12-31T14:38:40.686Z,68.90
2018-12-31T14:41:29.630Z,68.87
2018-12-31T14:44:18.596Z,68.70
2018-12-31T14:47:07.465Z,68.68
2018-12-31T14:49:56.356Z,68.87
2018-12-31T14:52:25.877Z,68.82
2018-12-31T14:55:14.740Z,68.76
2018-12-31T14:58:03.671Z,68.88
2018-12-31T15:00:52.567Z,68.84
2018-12-31T15:03:22.108Z,68.76
2018-12-31T15:06:10.941Z,68.71
2018-12-31T15:08:59.822Z,68.87
2018-12-31T15:11:48.631Z,68.98
2018-12-31T15:14:37.493Z,68.99
2018-12-31T15:17:19.397Z,69.14
2018-12-31T15:20:29.137Z,69.15
2018-12-31T15:23:19.790Z,69.13
2018-12-31T15:26:08.683Z,68.91
2018-12-31T15:28:57.837Z,68.82
2018-12-31T15:31:46.695Z,68.84
2018-12-31T15:34:35.636Z,68.85
2018-12-31T15:37:05.187Z,68.95
2018-12-31T15:39:54.043Z,69.00
2018-12-31T15:42:42.849Z,68.98
2018-12-31T15:45:33.255Z,69.06
2018-12-31T15:48:02.963Z,69.04
2018-12-31T15:50:51.840Z,69.05
2018-12-31T15:53:40.746Z,69.02
2018-12-31T15:56:22.314Z,69.08
2018-12-31T15:59:11.136Z,69.03
2018-12-31T16:02:00.016Z,69.05
2018-12-31T16:04:48.871Z,69.02
2018-12-31T16:07:45.405Z,69.06
2018-12-31T16:10:28.274Z,69.14
2018-12-31T16:13:18.949Z,69.15
2018-12-31T16:16:07.816Z,69.04
2018-12-31T16:18:56.633Z,69.06
2018-12-31T16:21:45.484Z,69.08
2018-12-31T16:24:34.299Z,69.15
2018-12-31T16:27:16.022Z,69.18
2018-12-31T16:33:20.816Z,68.99
2018-12-31T16:36:09.700Z,68.98
2018-12-31T16:38:58.655Z,69.15
2018-12-31T16:41:47.545Z,69.06
2018-12-31T16:44:37.376Z,69.08
2018-12-31T16:47:07.611Z,69.01
2018-12-31T16:49:56.561Z,68.94
2018-12-31T16:52:45.386Z,69.04
2018-12-31T16:55:34.255Z,69.12
2018-12-31T16:58:23.187Z,68.97
2018-12-31T17:01:11.994Z,69.12
2018-12-31T17:04:00.929Z,69.29
2018-12-31T17:06:49.831Z,69.10
2018-12-31T17:09:38.710Z,69.28
2018-12-31T17:12:27.527Z,69.25
2018-12-31T17:14:58.739Z,69.28
2018-12-31T17:17:47.613Z,69.03
2018-12-31T17:20:36.442Z,69.12
2018-12-31T17:23:25.308Z,69.20
2018-12-31T17:26:14.167Z,69.11
2018-12-31T17:29:02.988Z,69.20
2018-12-31T17:31:51.960Z,69.27
2018-12-31T17:34:40.809Z,69.12
2018-12-31T17:37:29.712Z,69.19
2018-12-31T17:39:59.209Z,69.22
2018-12-31T17:42:48.143Z,69.20
2018-12-31T17:45:36.995Z,69.12
2018-12-31T17:48:25.894Z,69.03
2018-12-31T17:51:15.403Z,69.14
2018-12-31T17:54:05.438Z,69.25
2018-12-31T17:56:34.932Z,69.28
2018-12-31T17:59:23.951Z,69.35
2018-12-31T18:02:12.773Z,69.15
2018-12-31T18:05:03.419Z,68.99
2018-12-31T18:07:52.302Z,69.17
2018-12-31T18:10:41.428Z,69.13
2018-12-31T18:13:10.957Z,69.18
2018-12-31T18:15:59.856Z,69.16
2018-12-31T18:18:48.670Z,69.12
2018-12-31T18:21:37.504Z,69.11
2018-12-31T18:24:06.993Z,69.38
2018-12-31T18:26:49.108Z,69.43
2018-12-31T18:29:37.926Z,69.63
2018-12-31T18:32:26.752Z,69.60
2018-12-31T18:35:15.637Z,69.76
2018-12-31T18:38:04.566Z,69.80
2018-12-31T18:40:34.064Z,69.72
2018-12-31T18:43:22.898Z,69.83
2018-12-31T18:46:11.844Z,69.86
2018-12-31T18:49:00.742Z,69.88
2018-12-31T18:51:49.604Z,69.88
2018-12-31T18:54:31.675Z,69.82
2018-12-31T18:57:20.562Z,69.73
2018-12-31T19:00:09.525Z,69.72
2018-12-31T19:02:58.389Z,69.67
2018-12-31T19:05:40.531Z,69.66
2018-12-31T19:08:29.397Z,69.64
2018-12-31T19:10:58.880Z,69.58
2018-12-31T19:13:47.729Z,69.62
2018-12-31T19:16:36.637Z,69.61
2018-12-31T19:19:25.479Z,69.67
2018-12-31T19:22:14.385Z,69.57
2018-12-31T19:25:03.229Z,69.59
2018-12-31T19:27:52.084Z,69.61
2018-12-31T19:30:40.956Z,69.55
2018-12-31T19:33:29.766Z,69.60
2018-12-31T19:36:18.637Z,69.56
2018-12-31T19:39:07.591Z,69.50
2018-12-31T19:41:56.499Z,69.39
2018-12-31T19:44:45.380Z,69.50
2018-12-31T19:47:34.189Z,69.45
2018-12-31T19:50:23.065Z,69.42
2018-12-31T19:53:13.522Z,69.30
2018-12-31T19:56:02.538Z,69.26
2018-12-31T19:58:51.386Z,69.28
2018-12-31T20:01:40.311Z,69.42
2018-12-31T20:04:23.967Z,69.63
2018-12-31T20:07:01.065Z,69.58
2018-12-31T20:09:44.001Z,69.59
2018-12-31T20:12:32.879Z,69.52
2018-12-31T20:15:21.699Z,69.63
2018-12-31T20:18:10.573Z,69.46
2018-12-31T20:20:59.475Z,69.63
2018-12-31T20:23:48.376Z,69.40
2018-12-31T20:26:37.303Z,69.37
2018-12-31T20:29:26.154Z,69.47
2018-12-31T20:32:15.043Z,69.45
2018-12-31T20:35:03.988Z,69.39
2018-12-31T20:37:53.007Z,68.95
2018-12-31T20:40:41.857Z,69.18
2018-12-31T20:43:30.699Z,69.20
2018-12-31T20:46:19.673Z,69.23
2018-12-31T20:49:01.477Z,69.14
2018-12-31T20:51:50.400Z,69.18
2018-12-31T20:54:39.263Z,69.17
2018-12-31T20:57:28.086Z,69.03
2018-12-31T20:59:57.751Z,69.06
2018-12-31T21:02:46.670Z,69.07
2018-12-31T21:05:35.542Z,68.96
2018-12-31T21:08:24.562Z,68.89
2018-12-31T21:11:13.405Z,68.96
2018-12-31T21:14:02.240Z,69.06
2018-12-31T21:16:51.094Z,69.06
2018-12-31T21:19:39.899Z,69.08
2018-12-31T21:22:28.827Z,69.27
2018-12-31T21:25:17.682Z,68.84
2018-12-31T21:28:06.565Z,68.87
2018-12-31T21:30:48.755Z,68.91
2018-12-31T21:33:37.587Z,69.09
2018-12-31T21:36:26.426Z,69.06
2018-12-31T21:39:15.279Z,69.15
2018-12-31T21:42:04.191Z,69.10
2018-12-31T21:44:53.285Z,69.09
2018-12-31T21:47:42.176Z,69.14
2018-12-31T21:50:13.376Z,69.11
2018-12-31T21:53:02.223Z,69.10
2018-12-31T21:55:51.108Z,69.25
2018-12-31T21:58:40.006Z,69.23
2018-12-31T22:01:28.935Z,69.19
2018-12-31T22:04:11.087Z,69.30
2018-12-31T22:06:59.957Z,69.17
2018-12-31T22:09:48.859Z,69.29
2018-12-31T22:12:37.726Z,69.32
2018-12-31T22:15:28.344Z,69.35
2018-12-31T22:18:17.222Z,69.37
2018-12-31T22:21:07.778Z,69.30
2018-12-31T22:23:56.622Z,69.17
2018-12-31T22:26:47.166Z,69.18
2018-12-31T22:29:36.048Z,69.23
2018-12-31T22:32:26.574Z,69.12
2018-12-31T22:35:15.426Z,69.01
2018-12-31T22:38:04.563Z,69.08
2018-12-31T22:40:53.400Z,68.96
2018-12-31T22:43:42.246Z,69.05
2018-12-31T22:46:31.068Z,69.16
2018-12-31T22:49:19.933Z,69.01
2018-12-31T22:52:08.774Z,69.02
2018-12-31T22:54:57.738Z,69.03
2018-12-31T22:57:46.546Z,69.04
2018-12-31T23:00:29.206Z,68.93
2018-12-31T23:03:18.033Z,69.08
2018-12-31T23:06:06.985Z,68.86
2018-12-31T23:08:55.811Z,68.93
2018-12-31T23:11:44.690Z,68.85
2018-12-31T23:14:33.503Z,68.90
2018-12-31T23:17:22.380Z,68.90
2018-12-31T23:20:32.083Z,69.06
2018-12-31T23:23:21.244Z,68.95
2018-12-31T23:26:10.073Z,68.90
2018-12-31T23:29:00.796Z,68.74
2018-12-31T23:31:49.664Z,68.83
2018-12-31T23:34:40.219Z,68.85
2018-12-31T23:37:29.029Z,68.93
2018-12-31T23:40:19.615Z,68.79
2018-12-31T23:43:08.493Z,68.74
2018-12-31T23:45:59.069Z,68.68
2018-12-31T23:48:47.865Z,68.60
2018-12-31T23:51:38.446Z,68.42
2018-12-31T23:54:27.355Z,68.34
2018-12-31T23:57:17.889Z,68.32
